sensor_id;sensor_type;location;lat;lon;timestamp;P1;durP1;ratioP1;P2;durP2;ratioP2
57551;SDS011;43379;48.160;14.036;2022-11-13T00:00:28;12.47;;;11.17;;
57551;SDS011;43379;48.160;14.036;2022-11-13T00:02:54;11.30;;;10.30;;
57551;SDS011;43379;48.160;14.036;2022-11-13T00:05:19;12.50;;;11.37;;
57551;SDS011;43379;48.160;14.036;2022-11-13T00:07:45;24.60;;;12.00;;
57551;SDS011;43379;48.160;14.036;2022-11-13T00:10:11;17.43;;;11.80;;
57551;SDS011;43379;48.160;14.036;2022-11-13T00:12:36;15.80;;;11.83;;
57551;SDS011;43379;48.160;14.036;2022-11-13T00:15:02;31.40;;;12.80;;
57551;SDS011;43379;48.160;14.036;2022-11-13T00:17:28;14.00;;;12.50;;
57551;SDS011;43379;48.160;14.036;2022-11-13T00:19:54;12.47;;;11.17;;
57551;SDS011;43379;48.160;14.036;2022-11-13T00:22:19;27.07;;;12.97;;
57551;SDS011;43379;48.160;14.036;2022-11-13T00:24:45;13.93;;;11.77;;
57551;SDS011;43379;48.160;14.036;2022-11-13T00:27:11;13.60;;;12.37;;
57551;SDS011;43379;48.160;14.036;2022-11-13T00:29:37;13.57;;;12.07;;
57551;SDS011;43379;48.160;14.036;2022-11-13T00:32:02;33.87;;;14.37;;
57551;SDS011;43379;48.160;14.036;2022-11-13T00:34:28;13.47;;;12.07;;
57551;SDS011;43379;48.160;14.036;2022-11-13T00:36:54;39.87;;;12.00;;
57551;SDS011;43379;48.160;14.036;2022-11-13T00:39:20;13.00;;;11.70;;
57551;SDS011;43379;48.160;14.036;2022-11-13T00:41:45;14.50;;;12.50;;
57551;SDS011;43379;48.160;14.036;2022-11-13T00:44:11;13.60;;;12.20;;
57551;SDS011;43379;48.160;14.036;2022-11-13T00:46:37;45.20;;;14.67;;
57551;SDS011;43379;48.160;14.036;2022-11-13T00:49:02;22.87;;;13.57;;
57551;SDS011;43379;48.160;14.036;2022-11-13T00:51:28;24.33;;;13.10;;
57551;SDS011;43379;48.160;14.036;2022-11-13T00:53:54;29.23;;;13.30;;
57551;SDS011;43379;48.160;14.036;2022-11-13T00:56:19;13.60;;;12.27;;
57551;SDS011;43379;48.160;14.036;2022-11-13T00:58:45;13.03;;;11.80;;
57551;SDS011;43379;48.160;14.036;2022-11-13T01:01:12;14.33;;;12.93;;
57551;SDS011;43379;48.160;14.036;2022-11-13T01:03:40;16.13;;;13.40;;
57551;SDS011;43379;48.160;14.036;2022-11-13T01:08:40;12.00;;;10.57;;
57551;SDS011;43379;48.160;14.036;2022-11-13T01:11:07;17.63;;;12.47;;
57551;SDS011;43379;48.160;14.036;2022-11-13T01:13:34;13.67;;;11.60;;
57551;SDS011;43379;48.160;14.036;2022-11-13T01:16:03;12.50;;;10.97;;
57551;SDS011;43379;48.160;14.036;2022-11-13T01:18:30;16.37;;;11.77;;
57551;SDS011;43379;48.160;14.036;2022-11-13T01:21:03;12.23;;;11.20;;
57551;SDS011;43379;48.160;14.036;2022-11-13T01:23:48;10.80;;;9.90;;
57551;SDS011;43379;48.160;14.036;2022-11-13T01:26:16;11.57;;;10.47;;
57551;SDS011;43379;48.160;14.036;2022-11-13T01:28:45;25.73;;;11.57;;
57551;SDS011;43379;48.160;14.036;2022-11-13T01:31:12;11.50;;;10.50;;
57551;SDS011;43379;48.160;14.036;2022-11-13T01:33:43;10.50;;;9.50;;
57551;SDS011;43379;48.160;14.036;2022-11-13T01:36:14;11.60;;;10.50;;
57551;SDS011;43379;48.160;14.036;2022-11-13T01:38:44;26.60;;;10.80;;
57551;SDS011;43379;48.160;14.036;2022-11-13T01:43:53;10.93;;;9.83;;
57551;SDS011;43379;48.160;14.036;2022-11-13T01:46:32;10.30;;;9.30;;
57551;SDS011;43379;48.160;14.036;2022-11-13T01:51:35;16.83;;;10.87;;
57551;SDS011;43379;48.160;14.036;2022-11-13T01:54:20;13.17;;;10.10;;
57551;SDS011;43379;48.160;14.036;2022-11-13T01:56:49;13.13;;;10.53;;
57551;SDS011;43379;48.160;14.036;2022-11-13T01:59:17;12.13;;;10.33;;
57551;SDS011;43379;48.160;14.036;2022-11-13T02:01:46;15.23;;;10.33;;
57551;SDS011;43379;48.160;14.036;2022-11-13T02:04:11;11.93;;;10.93;;
57551;SDS011;43379;48.160;14.036;2022-11-13T02:06:44;33.53;;;12.67;;
57551;SDS011;43379;48.160;14.036;2022-11-13T02:09:16;24.00;;;11.40;;
57551;SDS011;43379;48.160;14.036;2022-11-13T02:11:45;17.63;;;11.90;;
57551;SDS011;43379;48.160;14.036;2022-11-13T02:14:11;11.90;;;10.70;;
57551;SDS011;43379;48.160;14.036;2022-11-13T02:16:38;15.83;;;11.23;;
57551;SDS011;43379;48.160;14.036;2022-11-13T02:19:09;11.73;;;10.63;;
57551;SDS011;43379;48.160;14.036;2022-11-13T02:22:07;12.87;;;10.63;;
57551;SDS011;43379;48.160;14.036;2022-11-13T02:24:37;11.33;;;10.20;;
57551;SDS011;43379;48.160;14.036;2022-11-13T02:27:07;11.10;;;10.00;;
57551;SDS011;43379;48.160;14.036;2022-11-13T02:29:39;12.47;;;10.63;;
57551;SDS011;43379;48.160;14.036;2022-11-13T02:32:04;17.33;;;10.97;;
57551;SDS011;43379;48.160;14.036;2022-11-13T02:34:30;19.77;;;11.40;;
57551;SDS011;43379;48.160;14.036;2022-11-13T02:36:56;15.60;;;11.90;;
57551;SDS011;43379;48.160;14.036;2022-11-13T02:39:21;17.17;;;11.53;;
57551;SDS011;43379;48.160;14.036;2022-11-13T02:41:47;23.17;;;11.17;;
57551;SDS011;43379;48.160;14.036;2022-11-13T02:44:13;13.10;;;11.90;;
57551;SDS011;43379;48.160;14.036;2022-11-13T02:46:38;14.17;;;12.27;;
57551;SDS011;43379;48.160;14.036;2022-11-13T02:49:04;13.43;;;12.27;;
57551;SDS011;43379;48.160;14.036;2022-11-13T02:51:30;13.00;;;11.17;;
57551;SDS011;43379;48.160;14.036;2022-11-13T02:53:55;12.13;;;10.93;;
57551;SDS011;43379;48.160;14.036;2022-11-13T02:56:21;20.57;;;11.43;;
57551;SDS011;43379;48.160;14.036;2022-11-13T02:58:47;20.87;;;12.30;;
57551;SDS011;43379;48.160;14.036;2022-11-13T03:01:12;11.80;;;10.80;;
57551;SDS011;43379;48.160;14.036;2022-11-13T03:03:38;18.63;;;10.50;;
57551;SDS011;43379;48.160;14.036;2022-11-13T03:06:04;10.30;;;9.30;;
57551;SDS011;43379;48.160;14.036;2022-11-13T03:08:30;17.63;;;11.27;;
57551;SDS011;43379;48.160;14.036;2022-11-13T03:10:56;11.50;;;10.30;;
57551;SDS011;43379;48.160;14.036;2022-11-13T03:13:22;16.60;;;10.87;;
57551;SDS011;43379;48.160;14.036;2022-11-13T03:15:47;11.53;;;10.40;;
57551;SDS011;43379;48.160;14.036;2022-11-13T03:18:13;21.47;;;11.20;;
57551;SDS011;43379;48.160;14.036;2022-11-13T03:20:39;22.53;;;11.17;;
57551;SDS011;43379;48.160;14.036;2022-11-13T03:23:07;13.10;;;10.77;;
57551;SDS011;43379;48.160;14.036;2022-11-13T03:25:33;14.63;;;10.87;;
57551;SDS011;43379;48.160;14.036;2022-11-13T03:27:59;14.67;;;10.10;;
57551;SDS011;43379;48.160;14.036;2022-11-13T03:30:25;10.63;;;9.60;;
57551;SDS011;43379;48.160;14.036;2022-11-13T03:32:52;12.97;;;10.77;;
57551;SDS011;43379;48.160;14.036;2022-11-13T03:35:19;12.50;;;9.93;;
57551;SDS011;43379;48.160;14.036;2022-11-13T03:37:46;9.50;;;8.63;;
57551;SDS011;43379;48.160;14.036;2022-11-13T03:40:11;11.50;;;10.40;;
57551;SDS011;43379;48.160;14.036;2022-11-13T03:42:37;10.00;;;9.10;;
57551;SDS011;43379;48.160;14.036;2022-11-13T03:45:03;10.70;;;9.60;;
57551;SDS011;43379;48.160;14.036;2022-11-13T03:47:29;10.10;;;9.10;;
57551;SDS011;43379;48.160;14.036;2022-11-13T03:49:54;10.33;;;9.50;;
57551;SDS011;43379;48.160;14.036;2022-11-13T03:52:20;10.07;;;9.13;;
57551;SDS011;43379;48.160;14.036;2022-11-13T03:54:45;11.23;;;10.23;;
57551;SDS011;43379;48.160;14.036;2022-11-13T03:57:11;11.10;;;9.93;;
57551;SDS011;43379;48.160;14.036;2022-11-13T03:59:37;10.90;;;9.53;;
57551;SDS011;43379;48.160;14.036;2022-11-13T04:02:02;8.63;;;7.93;;
57551;SDS011;43379;48.160;14.036;2022-11-13T04:04:28;10.77;;;9.70;;
57551;SDS011;43379;48.160;14.036;2022-11-13T04:06:54;10.97;;;9.87;;
57551;SDS011;43379;48.160;14.036;2022-11-13T04:09:19;10.30;;;9.30;;
57551;SDS011;43379;48.160;14.036;2022-11-13T04:11:45;11.27;;;10.10;;
57551;SDS011;43379;48.160;14.036;2022-11-13T04:14:11;10.00;;;9.17;;
57551;SDS011;43379;48.160;14.036;2022-11-13T04:16:36;10.23;;;9.13;;
57551;SDS011;43379;48.160;14.036;2022-11-13T04:19:02;10.10;;;9.20;;
57551;SDS011;43379;48.160;14.036;2022-11-13T04:21:28;10.30;;;9.37;;
57551;SDS011;43379;48.160;14.036;2022-11-13T04:23:53;9.77;;;8.83;;
57551;SDS011;43379;48.160;14.036;2022-11-13T04:26:19;9.97;;;9.13;;
57551;SDS011;43379;48.160;14.036;2022-11-13T04:28:45;10.20;;;9.20;;
57551;SDS011;43379;48.160;14.036;2022-11-13T04:31:10;11.40;;;10.30;;
57551;SDS011;43379;48.160;14.036;2022-11-13T04:33:36;11.23;;;10.00;;
57551;SDS011;43379;48.160;14.036;2022-11-13T04:36:02;11.67;;;10.50;;
57551;SDS011;43379;48.160;14.036;2022-11-13T04:38:28;12.53;;;10.23;;
57551;SDS011;43379;48.160;14.036;2022-11-13T04:40:54;11.57;;;10.47;;
57551;SDS011;43379;48.160;14.036;2022-11-13T04:43:39;12.10;;;9.93;;
57551;SDS011;43379;48.160;14.036;2022-11-13T04:46:05;10.60;;;9.70;;
57551;SDS011;43379;48.160;14.036;2022-11-13T04:48:31;12.70;;;11.40;;
57551;SDS011;43379;48.160;14.036;2022-11-13T04:50:57;13.00;;;11.63;;
57551;SDS011;43379;48.160;14.036;2022-11-13T04:53:22;13.50;;;12.20;;
57551;SDS011;43379;48.160;14.036;2022-11-13T04:55:48;13.20;;;11.90;;
57551;SDS011;43379;48.160;14.036;2022-11-13T04:58:15;16.30;;;12.47;;
57551;SDS011;43379;48.160;14.036;2022-11-13T05:00:41;13.50;;;12.30;;
57551;SDS011;43379;48.160;14.036;2022-11-13T05:03:07;13.80;;;12.33;;
57551;SDS011;43379;48.160;14.036;2022-11-13T05:05:32;14.37;;;12.87;;
57551;SDS011;43379;48.160;14.036;2022-11-13T05:07:58;14.03;;;12.60;;
57551;SDS011;43379;48.160;14.036;2022-11-13T05:10:24;13.70;;;12.40;;
57551;SDS011;43379;48.160;14.036;2022-11-13T05:12:49;14.03;;;11.53;;
57551;SDS011;43379;48.160;14.036;2022-11-13T05:15:15;15.30;;;12.50;;
57551;SDS011;43379;48.160;14.036;2022-11-13T05:17:40;13.67;;;12.37;;
57551;SDS011;43379;48.160;14.036;2022-11-13T05:20:06;16.20;;;12.73;;
57551;SDS011;43379;48.160;14.036;2022-11-13T05:22:32;26.93;;;13.87;;
57551;SDS011;43379;48.160;14.036;2022-11-13T05:24:58;23.17;;;13.50;;
57551;SDS011;43379;48.160;14.036;2022-11-13T05:27:23;15.80;;;12.73;;
57551;SDS011;43379;48.160;14.036;2022-11-13T05:29:49;16.17;;;12.80;;
57551;SDS011;43379;48.160;14.036;2022-11-13T05:32:15;12.60;;;11.30;;
57551;SDS011;43379;48.160;14.036;2022-11-13T05:34:40;14.47;;;12.73;;
57551;SDS011;43379;48.160;14.036;2022-11-13T05:37:06;14.10;;;12.60;;
57551;SDS011;43379;48.160;14.036;2022-11-13T05:39:32;14.27;;;12.43;;
57551;SDS011;43379;48.160;14.036;2022-11-13T05:41:57;15.57;;;13.53;;
57551;SDS011;43379;48.160;14.036;2022-11-13T05:44:23;16.47;;;14.97;;
57551;SDS011;43379;48.160;14.036;2022-11-13T05:46:48;16.87;;;14.93;;
57551;SDS011;43379;48.160;14.036;2022-11-13T05:49:14;19.60;;;15.90;;
57551;SDS011;43379;48.160;14.036;2022-11-13T05:51:40;15.03;;;13.70;;
57551;SDS011;43379;48.160;14.036;2022-11-13T05:54:05;17.30;;;15.60;;
57551;SDS011;43379;48.160;14.036;2022-11-13T05:56:32;15.07;;;13.67;;
57551;SDS011;43379;48.160;14.036;2022-11-13T05:58:59;14.40;;;13.00;;
57551;SDS011;43379;48.160;14.036;2022-11-13T06:01:30;15.83;;;13.80;;
57551;SDS011;43379;48.160;14.036;2022-11-13T06:03:57;16.87;;;14.50;;
57551;SDS011;43379;48.160;14.036;2022-11-13T06:06:25;14.97;;;13.57;;
57551;SDS011;43379;48.160;14.036;2022-11-13T06:08:51;16.07;;;14.47;;
57551;SDS011;43379;48.160;14.036;2022-11-13T06:11:20;15.90;;;14.30;;
57551;SDS011;43379;48.160;14.036;2022-11-13T06:13:47;15.73;;;13.83;;
57551;SDS011;43379;48.160;14.036;2022-11-13T06:16:15;14.60;;;13.07;;
57551;SDS011;43379;48.160;14.036;2022-11-13T06:18:55;14.57;;;13.07;;
57551;SDS011;43379;48.160;14.036;2022-11-13T06:21:23;15.30;;;13.43;;
57551;SDS011;43379;48.160;14.036;2022-11-13T06:23:51;15.90;;;13.40;;
57551;SDS011;43379;48.160;14.036;2022-11-13T06:26:18;17.53;;;15.37;;
57551;SDS011;43379;48.160;14.036;2022-11-13T06:28:48;16.07;;;14.43;;
57551;SDS011;43379;48.160;14.036;2022-11-13T06:31:16;15.70;;;14.10;;
57551;SDS011;43379;48.160;14.036;2022-11-13T06:33:44;17.03;;;15.33;;
57551;SDS011;43379;48.160;14.036;2022-11-13T06:36:11;15.87;;;14.27;;
57551;SDS011;43379;48.160;14.036;2022-11-13T06:38:39;21.40;;;14.30;;
57551;SDS011;43379;48.160;14.036;2022-11-13T06:41:08;14.83;;;13.40;;
57551;SDS011;43379;48.160;14.036;2022-11-13T06:43:34;18.47;;;16.20;;
57551;SDS011;43379;48.160;14.036;2022-11-13T06:46:04;17.43;;;15.70;;
57551;SDS011;43379;48.160;14.036;2022-11-13T06:48:35;16.17;;;14.57;;
57551;SDS011;43379;48.160;14.036;2022-11-13T06:51:01;18.00;;;16.13;;
57551;SDS011;43379;48.160;14.036;2022-11-13T06:53:29;18.70;;;16.77;;
57551;SDS011;43379;48.160;14.036;2022-11-13T06:55:55;16.73;;;14.77;;
57551;SDS011;43379;48.160;14.036;2022-11-13T06:58:21;18.17;;;16.40;;
57551;SDS011;43379;48.160;14.036;2022-11-13T07:00:47;17.10;;;15.40;;
57551;SDS011;43379;48.160;14.036;2022-11-13T07:03:19;21.50;;;19.10;;
57551;SDS011;43379;48.160;14.036;2022-11-13T07:05:47;21.17;;;18.93;;
57551;SDS011;43379;48.160;14.036;2022-11-13T07:08:13;21.97;;;19.70;;
57551;SDS011;43379;48.160;14.036;2022-11-13T07:10:40;21.77;;;19.57;;
57551;SDS011;43379;48.160;14.036;2022-11-13T07:13:06;22.17;;;19.97;;
57551;SDS011;43379;48.160;14.036;2022-11-13T07:15:36;21.87;;;19.50;;
57551;SDS011;43379;48.160;14.036;2022-11-13T07:18:03;22.37;;;20.20;;
57551;SDS011;43379;48.160;14.036;2022-11-13T07:20:30;21.13;;;18.93;;
57551;SDS011;43379;48.160;14.036;2022-11-13T07:22:57;22.50;;;20.10;;
57551;SDS011;43379;48.160;14.036;2022-11-13T07:25:24;21.53;;;19.30;;
57551;SDS011;43379;48.160;14.036;2022-11-13T07:27:51;19.63;;;17.73;;
57551;SDS011;43379;48.160;14.036;2022-11-13T07:30:17;19.87;;;17.97;;
57551;SDS011;43379;48.160;14.036;2022-11-13T07:32:43;19.70;;;17.93;;
57551;SDS011;43379;48.160;14.036;2022-11-13T07:35:09;23.30;;;20.93;;
57551;SDS011;43379;48.160;14.036;2022-11-13T07:37:35;22.57;;;20.17;;
57551;SDS011;43379;48.160;14.036;2022-11-13T07:40:00;25.60;;;23.10;;
57551;SDS011;43379;48.160;14.036;2022-11-13T07:42:26;25.43;;;22.70;;
57551;SDS011;43379;48.160;14.036;2022-11-13T07:44:52;28.40;;;24.33;;
57551;SDS011;43379;48.160;14.036;2022-11-13T07:47:18;26.90;;;24.00;;
57551;SDS011;43379;48.160;14.036;2022-11-13T07:49:43;27.00;;;24.10;;
57551;SDS011;43379;48.160;14.036;2022-11-13T07:52:09;27.90;;;24.87;;
57551;SDS011;43379;48.160;14.036;2022-11-13T07:54:34;29.07;;;26.00;;
57551;SDS011;43379;48.160;14.036;2022-11-13T07:57:01;27.70;;;23.53;;
57551;SDS011;43379;48.160;14.036;2022-11-13T07:59:27;27.17;;;22.90;;
57551;SDS011;43379;48.160;14.036;2022-11-13T08:01:53;29.17;;;26.00;;
57551;SDS011;43379;48.160;14.036;2022-11-13T08:04:18;28.60;;;25.57;;
57551;SDS011;43379;48.160;14.036;2022-11-13T08:06:44;29.10;;;26.03;;
57551;SDS011;43379;48.160;14.036;2022-11-13T08:09:10;28.63;;;25.60;;
57551;SDS011;43379;48.160;14.036;2022-11-13T08:11:35;28.90;;;25.17;;
57551;SDS011;43379;48.160;14.036;2022-11-13T08:14:01;26.80;;;24.00;;
57551;SDS011;43379;48.160;14.036;2022-11-13T08:16:27;25.80;;;22.23;;
57551;SDS011;43379;48.160;14.036;2022-11-13T08:18:52;25.80;;;23.00;;
57551;SDS011;43379;48.160;14.036;2022-11-13T08:21:18;29.33;;;24.60;;
57551;SDS011;43379;48.160;14.036;2022-11-13T08:23:45;26.53;;;23.40;;
57551;SDS011;43379;48.160;14.036;2022-11-13T08:26:11;23.90;;;21.37;;
57551;SDS011;43379;48.160;14.036;2022-11-13T08:28:38;24.73;;;22.33;;
57551;SDS011;43379;48.160;14.036;2022-11-13T08:31:08;24.57;;;22.07;;
57551;SDS011;43379;48.160;14.036;2022-11-13T08:33:35;26.50;;;21.50;;
57551;SDS011;43379;48.160;14.036;2022-11-13T08:36:01;26.50;;;23.70;;
57551;SDS011;43379;48.160;14.036;2022-11-13T08:38:27;23.50;;;20.90;;
57551;SDS011;43379;48.160;14.036;2022-11-13T08:40:56;23.60;;;20.93;;
57551;SDS011;43379;48.160;14.036;2022-11-13T08:43:23;26.27;;;23.47;;
57551;SDS011;43379;48.160;14.036;2022-11-13T08:45:49;24.07;;;21.50;;
57551;SDS011;43379;48.160;14.036;2022-11-13T08:48:14;27.20;;;22.50;;
57551;SDS011;43379;48.160;14.036;2022-11-13T08:50:40;26.93;;;24.10;;
57551;SDS011;43379;48.160;14.036;2022-11-13T08:53:06;25.30;;;22.70;;
57551;SDS011;43379;48.160;14.036;2022-11-13T08:55:32;23.50;;;21.20;;
57551;SDS011;43379;48.160;14.036;2022-11-13T08:57:58;28.00;;;22.07;;
57551;SDS011;43379;48.160;14.036;2022-11-13T09:00:25;26.70;;;21.67;;
57551;SDS011;43379;48.160;14.036;2022-11-13T09:02:56;23.33;;;20.93;;
57551;SDS011;43379;48.160;14.036;2022-11-13T09:05:22;25.27;;;22.27;;
57551;SDS011;43379;48.160;14.036;2022-11-13T09:07:49;22.80;;;20.47;;
57551;SDS011;43379;48.160;14.036;2022-11-13T09:10:15;24.50;;;21.73;;
57551;SDS011;43379;48.160;14.036;2022-11-13T09:12:42;24.87;;;21.53;;
57551;SDS011;43379;48.160;14.036;2022-11-13T09:15:08;24.57;;;21.93;;
57551;SDS011;43379;48.160;14.036;2022-11-13T09:17:34;21.70;;;19.40;;
57551;SDS011;43379;48.160;14.036;2022-11-13T09:20:00;21.70;;;19.50;;
57551;SDS011;43379;48.160;14.036;2022-11-13T09:22:26;24.30;;;21.70;;
57551;SDS011;43379;48.160;14.036;2022-11-13T09:24:51;24.97;;;22.37;;
57551;SDS011;43379;48.160;14.036;2022-11-13T09:27:17;21.03;;;18.80;;
57551;SDS011;43379;48.160;14.036;2022-11-13T09:29:43;22.40;;;20.10;;
57551;SDS011;43379;48.160;14.036;2022-11-13T09:32:08;21.50;;;19.30;;
57551;SDS011;43379;48.160;14.036;2022-11-13T09:34:34;20.77;;;18.67;;
57551;SDS011;43379;48.160;14.036;2022-11-13T09:37:00;21.37;;;19.10;;
57551;SDS011;43379;48.160;14.036;2022-11-13T09:39:26;19.83;;;17.77;;
57551;SDS011;43379;48.160;14.036;2022-11-13T09:44:30;21.30;;;19.20;;
57551;SDS011;43379;48.160;14.036;2022-11-13T09:50:08;19.73;;;17.70;;
57551;SDS011;43379;48.160;14.036;2022-11-13T09:52:37;20.27;;;18.27;;
57551;SDS011;43379;48.160;14.036;2022-11-13T09:55:08;19.27;;;17.37;;
57551;SDS011;43379;48.160;14.036;2022-11-13T09:57:45;19.10;;;17.20;;
57551;SDS011;43379;48.160;14.036;2022-11-13T10:00:32;20.43;;;18.43;;
57551;SDS011;43379;48.160;14.036;2022-11-13T10:03:18;19.30;;;17.40;;
57551;SDS011;43379;48.160;14.036;2022-11-13T10:08:39;18.40;;;16.60;;
57551;SDS011;43379;48.160;14.036;2022-11-13T10:14:17;19.40;;;17.40;;
57551;SDS011;43379;48.160;14.036;2022-11-13T10:16:58;18.17;;;16.47;;
57551;SDS011;43379;48.160;14.036;2022-11-13T10:24:57;18.10;;;16.30;;
57551;SDS011;43379;48.160;14.036;2022-11-13T10:27:28;16.97;;;15.07;;
57551;SDS011;43379;48.160;14.036;2022-11-13T10:29:54;17.00;;;15.40;;
57551;SDS011;43379;48.160;14.036;2022-11-13T10:32:22;17.93;;;16.13;;
57551;SDS011;43379;48.160;14.036;2022-11-13T10:35:08;17.10;;;15.07;;
57551;SDS011;43379;48.160;14.036;2022-11-13T10:38:02;16.57;;;14.87;;
57551;SDS011;43379;48.160;14.036;2022-11-13T10:40:29;16.90;;;15.20;;
57551;SDS011;43379;48.160;14.036;2022-11-13T10:45:53;17.97;;;16.17;;
57551;SDS011;43379;48.160;14.036;2022-11-13T10:48:27;17.37;;;15.77;;
57551;SDS011;43379;48.160;14.036;2022-11-13T10:51:04;17.17;;;15.47;;
57551;SDS011;43379;48.160;14.036;2022-11-13T10:53:44;17.70;;;15.73;;
57551;SDS011;43379;48.160;14.036;2022-11-13T10:56:12;17.47;;;15.67;;
57551;SDS011;43379;48.160;14.036;2022-11-13T10:58:58;15.83;;;14.23;;
57551;SDS011;43379;48.160;14.036;2022-11-13T11:01:26;16.67;;;14.97;;
57551;SDS011;43379;48.160;14.036;2022-11-13T11:03:52;16.43;;;14.80;;
57551;SDS011;43379;48.160;14.036;2022-11-13T11:06:18;17.47;;;15.77;;
57551;SDS011;43379;48.160;14.036;2022-11-13T11:08:44;17.97;;;16.20;;
57551;SDS011;43379;48.160;14.036;2022-11-13T11:11:14;16.80;;;15.13;;
57551;SDS011;43379;48.160;14.036;2022-11-13T11:16:47;14.67;;;13.27;;
57551;SDS011;43379;48.160;14.036;2022-11-13T11:19:16;17.80;;;16.20;;
57551;SDS011;43379;48.160;14.036;2022-11-13T11:21:46;17.10;;;15.43;;
57551;SDS011;43379;48.160;14.036;2022-11-13T11:24:17;17.23;;;15.57;;
57551;SDS011;43379;48.160;14.036;2022-11-13T11:26:53;15.57;;;14.17;;
57551;SDS011;43379;48.160;14.036;2022-11-13T11:29:36;16.70;;;15.10;;
57551;SDS011;43379;48.160;14.036;2022-11-13T11:32:10;16.00;;;14.57;;
57551;SDS011;43379;48.160;14.036;2022-11-13T11:37:35;15.80;;;14.30;;
57551;SDS011;43379;48.160;14.036;2022-11-13T11:42:57;16.00;;;14.40;;
57551;SDS011;43379;48.160;14.036;2022-11-13T11:45:41;16.50;;;14.87;;
57551;SDS011;43379;48.160;14.036;2022-11-13T11:48:19;15.50;;;14.07;;
57551;SDS011;43379;48.160;14.036;2022-11-13T11:53:32;14.87;;;13.50;;
57551;SDS011;43379;48.160;14.036;2022-11-13T11:56:17;14.20;;;12.80;;
57551;SDS011;43379;48.160;14.036;2022-11-13T12:07:58;15.60;;;14.10;;
57551;SDS011;43379;48.160;14.036;2022-11-13T12:15:50;14.77;;;13.30;;
57551;SDS011;43379;48.160;14.036;2022-11-13T12:26:46;14.50;;;13.20;;
57551;SDS011;43379;48.160;14.036;2022-11-13T12:34:52;15.30;;;13.80;;
57551;SDS011;43379;48.160;14.036;2022-11-13T12:37:29;13.60;;;12.37;;
57551;SDS011;43379;48.160;14.036;2022-11-13T12:39:58;14.00;;;12.60;;
57551;SDS011;43379;48.160;14.036;2022-11-13T12:42:51;14.80;;;13.30;;
57551;SDS011;43379;48.160;14.036;2022-11-13T12:45:43;14.63;;;12.60;;
57551;SDS011;43379;48.160;14.036;2022-11-13T12:48:26;13.00;;;11.77;;
57551;SDS011;43379;48.160;14.036;2022-11-13T12:51:04;14.27;;;12.87;;
57551;SDS011;43379;48.160;14.036;2022-11-13T12:53:47;13.73;;;11.70;;
57551;SDS011;43379;48.160;14.036;2022-11-13T12:58:52;13.03;;;11.70;;
57551;SDS011;43379;48.160;14.036;2022-11-13T13:01:25;12.50;;;11.30;;
57551;SDS011;43379;48.160;14.036;2022-11-13T13:09:49;12.33;;;10.97;;
57551;SDS011;43379;48.160;14.036;2022-11-13T13:12:37;12.23;;;11.13;;
57551;SDS011;43379;48.160;14.036;2022-11-13T13:15:29;12.60;;;11.40;;
57551;SDS011;43379;48.160;14.036;2022-11-13T13:20:44;13.67;;;12.27;;
57551;SDS011;43379;48.160;14.036;2022-11-13T13:23:30;14.27;;;12.90;;
57551;SDS011;43379;48.160;14.036;2022-11-13T13:28:43;15.10;;;13.70;;
57551;SDS011;43379;48.160;14.036;2022-11-13T13:31:45;15.00;;;13.50;;
57551;SDS011;43379;48.160;14.036;2022-11-13T13:37:41;14.67;;;13.27;;
57551;SDS011;43379;48.160;14.036;2022-11-13T13:40:14;14.00;;;12.70;;
57551;SDS011;43379;48.160;14.036;2022-11-13T13:43:00;15.50;;;14.10;;
57551;SDS011;43379;48.160;14.036;2022-11-13T13:48:49;15.13;;;13.73;;
57551;SDS011;43379;48.160;14.036;2022-11-13T13:54:18;14.00;;;12.70;;
57551;SDS011;43379;48.160;14.036;2022-11-13T13:56:49;15.27;;;13.73;;
57551;SDS011;43379;48.160;14.036;2022-11-13T13:59:15;15.63;;;14.23;;
57551;SDS011;43379;48.160;14.036;2022-11-13T14:02:44;16.23;;;14.73;;
57551;SDS011;43379;48.160;14.036;2022-11-13T14:04:47;14.57;;;13.03;;
57551;SDS011;43379;48.160;14.036;2022-11-13T14:07:25;14.80;;;13.33;;
57551;SDS011;43379;48.160;14.036;2022-11-13T14:12:48;16.00;;;14.50;;
57551;SDS011;43379;48.160;14.036;2022-11-13T14:15:27;15.87;;;14.37;;
57551;SDS011;43379;48.160;14.036;2022-11-13T14:20:33;15.57;;;14.07;;
57551;SDS011;43379;48.160;14.036;2022-11-13T14:26:16;17.60;;;15.90;;
57551;SDS011;43379;48.160;14.036;2022-11-13T14:31:26;17.67;;;16.17;;
57551;SDS011;43379;48.160;14.036;2022-11-13T14:33:54;19.50;;;17.70;;
57551;SDS011;43379;48.160;14.036;2022-11-13T14:36:25;17.03;;;15.37;;
57551;SDS011;43379;48.160;14.036;2022-11-13T14:38:56;18.27;;;16.57;;
57551;SDS011;43379;48.160;14.036;2022-11-13T14:41:26;18.90;;;16.90;;
57551;SDS011;43379;48.160;14.036;2022-11-13T14:44:01;20.23;;;18.33;;
57551;SDS011;43379;48.160;14.036;2022-11-13T14:46:29;18.73;;;16.73;;
57551;SDS011;43379;48.160;14.036;2022-11-13T14:48:57;18.13;;;16.33;;
57551;SDS011;43379;48.160;14.036;2022-11-13T14:51:28;19.30;;;17.53;;
57551;SDS011;43379;48.160;14.036;2022-11-13T14:54:05;20.57;;;18.67;;
57551;SDS011;43379;48.160;14.036;2022-11-13T14:59:05;21.07;;;19.10;;
57551;SDS011;43379;48.160;14.036;2022-11-13T15:01:32;20.13;;;18.23;;
57551;SDS011;43379;48.160;14.036;2022-11-13T15:03:58;20.20;;;18.33;;
57551;SDS011;43379;48.160;14.036;2022-11-13T15:06:24;20.53;;;18.63;;
57551;SDS011;43379;48.160;14.036;2022-11-13T15:08:55;20.30;;;18.50;;
57551;SDS011;43379;48.160;14.036;2022-11-13T15:11:23;20.90;;;18.97;;
57551;SDS011;43379;48.160;14.036;2022-11-13T15:13:50;21.80;;;19.60;;
57551;SDS011;43379;48.160;14.036;2022-11-13T15:16:16;20.00;;;18.10;;
57551;SDS011;43379;48.160;14.036;2022-11-13T15:18:50;21.57;;;19.47;;
57551;SDS011;43379;48.160;14.036;2022-11-13T15:21:25;20.83;;;18.97;;
57551;SDS011;43379;48.160;14.036;2022-11-13T15:23:51;21.47;;;19.57;;
57551;SDS011;43379;48.160;14.036;2022-11-13T15:26:17;20.10;;;18.20;;
57551;SDS011;43379;48.160;14.036;2022-11-13T15:28:42;21.50;;;19.30;;
57551;SDS011;43379;48.160;14.036;2022-11-13T15:31:15;20.07;;;18.23;;
57551;SDS011;43379;48.160;14.036;2022-11-13T15:33:54;20.80;;;18.90;;
57551;SDS011;43379;48.160;14.036;2022-11-13T15:36:20;21.67;;;19.53;;
57551;SDS011;43379;48.160;14.036;2022-11-13T15:38:45;21.40;;;19.40;;
57551;SDS011;43379;48.160;14.036;2022-11-13T15:41:12;20.50;;;18.40;;
57551;SDS011;43379;48.160;14.036;2022-11-13T15:43:58;19.97;;;18.07;;
57551;SDS011;43379;48.160;14.036;2022-11-13T15:46:26;22.23;;;20.03;;
57551;SDS011;43379;48.160;14.036;2022-11-13T15:48:52;20.80;;;18.90;;
57551;SDS011;43379;48.160;14.036;2022-11-13T15:51:23;19.87;;;17.97;;
57551;SDS011;43379;48.160;14.036;2022-11-13T15:56:33;20.33;;;18.40;;
57551;SDS011;43379;48.160;14.036;2022-11-13T15:58:59;19.40;;;17.60;;
57551;SDS011;43379;48.160;14.036;2022-11-13T16:01:24;19.60;;;17.63;;
57551;SDS011;43379;48.160;14.036;2022-11-13T16:03:50;20.20;;;18.20;;
57551;SDS011;43379;48.160;14.036;2022-11-13T16:06:18;19.47;;;17.67;;
57551;SDS011;43379;48.160;14.036;2022-11-13T16:08:46;19.93;;;17.93;;